sensor_id;sensor_type;location;lat;lon;timestamp;P1;durP1;ratioP1;P2;durP2;ratioP2
26271;SDS011;13997;48.902;12.472;2023-04-25T00:01:55;7.13;;;4.05;;
26271;SDS011;13997;48.902;12.472;2023-04-25T00:04:21;6.22;;;4.35;;
26271;SDS011;13997;48.902;12.472;2023-04-25T00:06:47;7.60;;;4.15;;
26271;SDS011;13997;48.902;12.472;2023-04-25T00:09:13;6.28;;;3.70;;
26271;SDS011;13997;48.902;12.472;2023-04-25T00:11:39;5.75;;;4.07;;
26271;SDS011;13997;48.902;12.472;2023-04-25T00:14:05;7.72;;;3.20;;
26271;SDS011;13997;48.902;12.472;2023-04-25T00:16:31;4.55;;;3.22;;
26271;SDS011;13997;48.902;12.472;2023-04-25T00:18:59;6.72;;;3.10;;
26271;SDS011;13997;48.902;12.472;2023-04-25T00:21:26;5.80;;;3.15;;
26271;SDS011;13997;48.902;12.472;2023-04-25T00:23:53;7.60;;;3.50;;
26271;SDS011;13997;48.902;12.472;2023-04-25T00:26:19;5.50;;;3.35;;
26271;SDS011;13997;48.902;12.472;2023-04-25T00:28:45;5.82;;;3.30;;
26271;SDS011;13997;48.902;12.472;2023-04-25T00:31:12;4.90;;;3.45;;
26271;SDS011;13997;48.902;12.472;2023-04-25T00:33:37;7.32;;;3.88;;
26271;SDS011;13997;48.902;12.472;2023-04-25T00:36:03;5.75;;;3.42;;
26271;SDS011;13997;48.902;12.472;2023-04-25T00:38:29;7.30;;;3.50;;
26271;SDS011;13997;48.902;12.472;2023-04-25T00:40:54;6.50;;;3.47;;
26271;SDS011;13997;48.902;12.472;2023-04-25T00:43:20;6.07;;;3.67;;
26271;SDS011;13997;48.902;12.472;2023-04-25T00:45:46;5.90;;;3.42;;
26271;SDS011;13997;48.902;12.472;2023-04-25T00:48:16;5.88;;;3.58;;
26271;SDS011;13997;48.902;12.472;2023-04-25T00:50:43;5.97;;;3.50;;
26271;SDS011;13997;48.902;12.472;2023-04-25T00:53:18;5.10;;;3.33;;
26271;SDS011;13997;48.902;12.472;2023-04-25T00:55:44;5.13;;;3.38;;
26271;SDS011;13997;48.902;12.472;2023-04-25T00:58:10;8.65;;;3.38;;
26271;SDS011;13997;48.902;12.472;2023-04-25T01:00:36;4.10;;;3.13;;
26271;SDS011;13997;48.902;12.472;2023-04-25T01:03:01;9.77;;;3.53;;
26271;SDS011;13997;48.902;12.472;2023-04-25T01:05:28;4.82;;;3.47;;
26271;SDS011;13997;48.902;12.472;2023-04-25T01:07:54;4.95;;;3.10;;
26271;SDS011;13997;48.902;12.472;2023-04-25T01:10:20;5.60;;;3.33;;
26271;SDS011;13997;48.902;12.472;2023-04-25T01:12:46;6.45;;;3.45;;
26271;SDS011;13997;48.902;12.472;2023-04-25T01:15:12;4.82;;;3.78;;
26271;SDS011;13997;48.902;12.472;2023-04-25T01:17:38;3.97;;;3.15;;
26271;SDS011;13997;48.902;12.472;2023-04-25T01:20:06;4.90;;;3.35;;
26271;SDS011;13997;48.902;12.472;2023-04-25T01:22:34;3.60;;;2.78;;
26271;SDS011;13997;48.902;12.472;2023-04-25T01:25:00;5.20;;;2.95;;
26271;SDS011;13997;48.902;12.472;2023-04-25T01:27:26;5.32;;;3.42;;
26271;SDS011;13997;48.902;12.472;2023-04-25T01:29:52;4.65;;;3.83;;
26271;SDS011;13997;48.902;12.472;2023-04-25T01:32:19;5.38;;;3.45;;
26271;SDS011;13997;48.902;12.472;2023-04-25T01:34:47;5.65;;;3.55;;
26271;SDS011;13997;48.902;12.472;2023-04-25T01:37:12;11.85;;;3.58;;
26271;SDS011;13997;48.902;12.472;2023-04-25T01:39:38;6.45;;;3.38;;
26271;SDS011;13997;48.902;12.472;2023-04-25T01:42:04;6.65;;;3.85;;
26271;SDS011;13997;48.902;12.472;2023-04-25T01:44:29;3.92;;;3.05;;
26271;SDS011;13997;48.902;12.472;2023-04-25T01:46:55;4.32;;;3.35;;
26271;SDS011;13997;48.902;12.472;2023-04-25T01:49:20;6.93;;;4.47;;
26271;SDS011;13997;48.902;12.472;2023-04-25T01:51:46;6.65;;;4.72;;
26271;SDS011;13997;48.902;12.472;2023-04-25T01:54:12;5.95;;;4.43;;
26271;SDS011;13997;48.902;12.472;2023-04-25T01:56:38;7.18;;;4.55;;
26271;SDS011;13997;48.902;12.472;2023-04-25T01:59:05;7.18;;;4.15;;
26271;SDS011;13997;48.902;12.472;2023-04-25T02:01:31;7.68;;;4.30;;
26271;SDS011;13997;48.902;12.472;2023-04-25T02:03:57;7.13;;;4.40;;
26271;SDS011;13997;48.902;12.472;2023-04-25T02:06:22;4.93;;;4.00;;
26271;SDS011;13997;48.902;12.472;2023-04-25T02:08:48;5.28;;;4.25;;
26271;SDS011;13997;48.902;12.472;2023-04-25T02:11:14;8.02;;;4.68;;
26271;SDS011;13997;48.902;12.472;2023-04-25T02:13:39;5.13;;;4.13;;
26271;SDS011;13997;48.902;12.472;2023-04-25T02:16:05;5.90;;;4.20;;
26271;SDS011;13997;48.902;12.472;2023-04-25T02:18:30;10.95;;;3.67;;
26271;SDS011;13997;48.902;12.472;2023-04-25T02:20:58;5.22;;;3.58;;
26271;SDS011;13997;48.902;12.472;2023-04-25T02:23:24;5.68;;;3.60;;
26271;SDS011;13997;48.902;12.472;2023-04-25T02:25:50;8.18;;;3.70;;
26271;SDS011;13997;48.902;12.472;2023-04-25T02:28:16;5.45;;;3.78;;
26271;SDS011;13997;48.902;12.472;2023-04-25T02:30:42;4.43;;;3.35;;
26271;SDS011;13997;48.902;12.472;2023-04-25T02:33:08;6.85;;;3.50;;
26271;SDS011;13997;48.902;12.472;2023-04-25T02:35:33;6.63;;;3.45;;
26271;SDS011;13997;48.902;12.472;2023-04-25T02:37:59;5.75;;;3.03;;
26271;SDS011;13997;48.902;12.472;2023-04-25T02:40:24;5.57;;;3.75;;
26271;SDS011;13997;48.902;12.472;2023-04-25T02:42:50;4.88;;;3.30;;
26271;SDS011;13997;48.902;12.472;2023-04-25T02:45:16;5.18;;;3.08;;
26271;SDS011;13997;48.902;12.472;2023-04-25T02:47:42;7.20;;;3.28;;
26271;SDS011;13997;48.902;12.472;2023-04-25T02:50:07;6.47;;;3.35;;
26271;SDS011;13997;48.902;12.472;2023-04-25T02:52:33;4.72;;;3.65;;
26271;SDS011;13997;48.902;12.472;2023-04-25T02:54:59;5.40;;;3.75;;
26271;SDS011;13997;48.902;12.472;2023-04-25T02:57:24;6.35;;;3.83;;
26271;SDS011;13997;48.902;12.472;2023-04-25T02:59:50;4.50;;;3.47;;
26271;SDS011;13997;48.902;12.472;2023-04-25T03:02:15;4.57;;;3.33;;
26271;SDS011;13997;48.902;12.472;2023-04-25T03:04:41;4.88;;;3.25;;
26271;SDS011;13997;48.902;12.472;2023-04-25T03:07:06;5.53;;;3.40;;
26271;SDS011;13997;48.902;12.472;2023-04-25T03:09:32;7.65;;;3.67;;
26271;SDS011;13997;48.902;12.472;2023-04-25T03:11:58;4.68;;;3.42;;
26271;SDS011;13997;48.902;12.472;2023-04-25T03:14:23;6.30;;;3.60;;
26271;SDS011;13997;48.902;12.472;2023-04-25T03:16:49;6.25;;;3.22;;
26271;SDS011;13997;48.902;12.472;2023-04-25T03:19:14;6.30;;;3.42;;
26271;SDS011;13997;48.902;12.472;2023-04-25T03:21:43;5.50;;;3.50;;
26271;SDS011;13997;48.902;12.472;2023-04-25T03:24:09;7.13;;;3.67;;
26271;SDS011;13997;48.902;12.472;2023-04-25T03:26:36;4.28;;;3.22;;
26271;SDS011;13997;48.902;12.472;2023-04-25T03:29:01;5.93;;;3.60;;
26271;SDS011;13997;48.902;12.472;2023-04-25T03:31:27;6.00;;;3.67;;
26271;SDS011;13997;48.902;12.472;2023-04-25T03:33:53;5.63;;;3.50;;
26271;SDS011;13997;48.902;12.472;2023-04-25T03:36:18;4.50;;;3.50;;
26271;SDS011;13997;48.902;12.472;2023-04-25T03:38:44;4.32;;;3.33;;
26271;SDS011;13997;48.902;12.472;2023-04-25T03:41:10;5.13;;;3.63;;
26271;SDS011;13997;48.902;12.472;2023-04-25T03:43:35;4.55;;;3.33;;
26271;SDS011;13997;48.902;12.472;2023-04-25T03:46:01;4.65;;;3.33;;
26271;SDS011;13997;48.902;12.472;2023-04-25T03:48:26;6.07;;;3.58;;
26271;SDS011;13997;48.902;12.472;2023-04-25T03:50:52;6.28;;;3.65;;
26271;SDS011;13997;48.902;12.472;2023-04-25T03:53:19;7.45;;;3.50;;
26271;SDS011;13997;48.902;12.472;2023-04-25T03:55:44;6.30;;;3.70;;
26271;SDS011;13997;48.902;12.472;2023-04-25T03:58:10;5.50;;;3.90;;
26271;SDS011;13997;48.902;12.472;2023-04-25T04:00:36;5.05;;;3.30;;
26271;SDS011;13997;48.902;12.472;2023-04-25T04:03:01;6.03;;;3.05;;
26271;SDS011;13997;48.902;12.472;2023-04-25T04:05:27;9.00;;;3.75;;
26271;SDS011;13997;48.902;12.472;2023-04-25T04:07:53;4.63;;;3.40;;
26271;SDS011;13997;48.902;12.472;2023-04-25T04:10:20;7.65;;;3.60;;
26271;SDS011;13997;48.902;12.472;2023-04-25T04:12:45;6.95;;;3.47;;
26271;SDS011;13997;48.902;12.472;2023-04-25T04:15:11;6.28;;;3.30;;
26271;SDS011;13997;48.902;12.472;2023-04-25T04:17:37;6.75;;;3.50;;
26271;SDS011;13997;48.902;12.472;2023-04-25T04:20:03;4.22;;;3.13;;
26271;SDS011;13997;48.902;12.472;2023-04-25T04:22:29;4.22;;;3.22;;
26271;SDS011;13997;48.902;12.472;2023-04-25T04:24:54;4.43;;;3.50;;
26271;SDS011;13997;48.902;12.472;2023-04-25T04:27:21;7.07;;;3.50;;
26271;SDS011;13997;48.902;12.472;2023-04-25T04:29:47;4.80;;;3.40;;
26271;SDS011;13997;48.902;12.472;2023-04-25T04:32:14;6.10;;;3.10;;
26271;SDS011;13997;48.902;12.472;2023-04-25T04:34:40;5.95;;;3.50;;
26271;SDS011;13997;48.902;12.472;2023-04-25T04:37:06;8.35;;;3.75;;
26271;SDS011;13997;48.902;12.472;2023-04-25T04:39:32;4.55;;;3.60;;
26271;SDS011;13997;48.902;12.472;2023-04-25T04:41:58;4.45;;;3.17;;
26271;SDS011;13997;48.902;12.472;2023-04-25T04:44:26;5.18;;;3.60;;
26271;SDS011;13997;48.902;12.472;2023-04-25T04:46:53;4.43;;;3.33;;
26271;SDS011;13997;48.902;12.472;2023-04-25T04:49:19;5.07;;;3.38;;
26271;SDS011;13997;48.902;12.472;2023-04-25T04:51:44;5.70;;;3.60;;
26271;SDS011;13997;48.902;12.472;2023-04-25T04:54:10;7.50;;;4.40;;
26271;SDS011;13997;48.902;12.472;2023-04-25T04:56:35;4.82;;;3.08;;
26271;SDS011;13997;48.902;12.472;2023-04-25T04:59:01;8.23;;;4.35;;
26271;SDS011;13997;48.902;12.472;2023-04-25T05:01:27;5.28;;;3.88;;
26271;SDS011;13997;48.902;12.472;2023-04-25T05:03:54;7.25;;;3.90;;
26271;SDS011;13997;48.902;12.472;2023-04-25T05:06:25;7.18;;;4.03;;
26271;SDS011;13997;48.902;12.472;2023-04-25T05:08:51;7.30;;;3.97;;
26271;SDS011;13997;48.902;12.472;2023-04-25T05:11:17;4.63;;;3.45;;
26271;SDS011;13997;48.902;12.472;2023-04-25T05:13:43;6.07;;;3.85;;
26271;SDS011;13997;48.902;12.472;2023-04-25T05:16:10;5.18;;;4.22;;
26271;SDS011;13997;48.902;12.472;2023-04-25T05:18:36;5.93;;;3.72;;
26271;SDS011;13997;48.902;12.472;2023-04-25T05:21:02;7.40;;;3.67;;
26271;SDS011;13997;48.902;12.472;2023-04-25T05:23:27;4.22;;;3.63;;
26271;SDS011;13997;48.902;12.472;2023-04-25T05:25:54;10.32;;;3.90;;
26271;SDS011;13997;48.902;12.472;2023-04-25T05:28:20;7.45;;;4.05;;
26271;SDS011;13997;48.902;12.472;2023-04-25T05:30:46;5.45;;;3.70;;
26271;SDS011;13997;48.902;12.472;2023-04-25T05:33:11;6.72;;;3.70;;
26271;SDS011;13997;48.902;12.472;2023-04-25T05:35:37;7.00;;;3.33;;
26271;SDS011;13997;48.902;12.472;2023-04-25T05:38:02;7.57;;;3.67;;
26271;SDS011;13997;48.902;12.472;2023-04-25T05:40:28;6.65;;;3.38;;
26271;SDS011;13997;48.902;12.472;2023-04-25T05:42:54;6.10;;;3.40;;
26271;SDS011;13997;48.902;12.472;2023-04-25T05:45:19;5.40;;;3.53;;
26271;SDS011;13997;48.902;12.472;2023-04-25T05:47:45;9.80;;;4.10;;
26271;SDS011;13997;48.902;12.472;2023-04-25T05:50:10;7.65;;;3.58;;
26271;SDS011;13997;48.902;12.472;2023-04-25T05:52:36;6.30;;;3.60;;
26271;SDS011;13997;48.902;12.472;2023-04-25T05:55:01;4.88;;;3.38;;
26271;SDS011;13997;48.902;12.472;2023-04-25T05:57:27;4.78;;;3.22;;
26271;SDS011;13997;48.902;12.472;2023-04-25T05:59:53;6.82;;;3.50;;
26271;SDS011;13997;48.902;12.472;2023-04-25T06:02:19;6.93;;;3.70;;
26271;SDS011;13997;48.902;12.472;2023-04-25T06:04:46;5.95;;;3.90;;
26271;SDS011;13997;48.902;12.472;2023-04-25T06:07:14;5.53;;;3.00;;
26271;SDS011;13997;48.902;12.472;2023-04-25T06:09:39;5.45;;;2.50;;
26271;SDS011;13997;48.902;12.472;2023-04-25T06:12:05;4.90;;;2.28;;
26271;SDS011;13997;48.902;12.472;2023-04-25T06:14:32;4.38;;;2.58;;
26271;SDS011;13997;48.902;12.472;2023-04-25T06:16:58;4.93;;;2.50;;
26271;SDS011;13997;48.902;12.472;2023-04-25T06:19:24;4.82;;;2.42;;
26271;SDS011;13997;48.902;12.472;2023-04-25T06:21:49;5.57;;;2.55;;
26271;SDS011;13997;48.902;12.472;2023-04-25T06:24:15;4.43;;;2.30;;
26271;SDS011;13997;48.902;12.472;2023-04-25T06:26:40;2.80;;;1.85;;
26271;SDS011;13997;48.902;12.472;2023-04-25T06:29:06;4.65;;;2.08;;
26271;SDS011;13997;48.902;12.472;2023-04-25T06:31:32;5.32;;;2.22;;
26271;SDS011;13997;48.902;12.472;2023-04-25T06:33:58;7.13;;;2.45;;
26271;SDS011;13997;48.902;12.472;2023-04-25T06:36:24;2.50;;;2.15;;
26271;SDS011;13997;48.902;12.472;2023-04-25T06:38:51;4.05;;;2.65;;
26271;SDS011;13997;48.902;12.472;2023-04-25T06:41:17;5.40;;;2.78;;
26271;SDS011;13997;48.902;12.472;2023-04-25T06:43:43;5.20;;;2.70;;
26271;SDS011;13997;48.902;12.472;2023-04-25T06:46:09;4.57;;;2.97;;
26271;SDS011;13997;48.902;12.472;2023-04-25T06:48:35;5.13;;;3.00;;
26271;SDS011;13997;48.902;12.472;2023-04-25T06:51:00;4.78;;;3.28;;
26271;SDS011;13997;48.902;12.472;2023-04-25T06:53:26;6.38;;;3.22;;
26271;SDS011;13997;48.902;12.472;2023-04-25T06:55:51;6.68;;;3.28;;
26271;SDS011;13997;48.902;12.472;2023-04-25T06:58:17;5.03;;;3.25;;
26271;SDS011;13997;48.902;12.472;2023-04-25T07:00:43;7.30;;;3.47;;
26271;SDS011;13997;48.902;12.472;2023-04-25T07:03:08;4.95;;;3.13;;
26271;SDS011;13997;48.902;12.472;2023-04-25T07:05:34;7.30;;;3.17;;
26271;SDS011;13997;48.902;12.472;2023-04-25T07:08:00;6.57;;;3.10;;
26271;SDS011;13997;48.902;12.472;2023-04-25T07:10:26;7.78;;;3.33;;
26271;SDS011;13997;48.902;12.472;2023-04-25T07:12:51;7.40;;;3.30;;
26271;SDS011;13997;48.902;12.472;2023-04-25T07:15:17;7.50;;;3.65;;
26271;SDS011;13997;48.902;12.472;2023-04-25T07:17:42;5.03;;;3.13;;
26271;SDS011;13997;48.902;12.472;2023-04-25T07:20:08;6.28;;;3.10;;
26271;SDS011;13997;48.902;12.472;2023-04-25T07:22:35;6.72;;;2.78;;
26271;SDS011;13997;48.902;12.472;2023-04-25T07:25:01;7.32;;;3.28;;
26271;SDS011;13997;48.902;12.472;2023-04-25T07:27:27;5.82;;;3.30;;
26271;SDS011;13997;48.902;12.472;2023-04-25T07:29:53;6.18;;;3.25;;
26271;SDS011;13997;48.902;12.472;2023-04-25T07:32:19;4.40;;;3.00;;
26271;SDS011;13997;48.902;12.472;2023-04-25T07:34:44;7.25;;;3.35;;
26271;SDS011;13997;48.902;12.472;2023-04-25T07:37:10;7.60;;;3.28;;
26271;SDS011;13997;48.902;12.472;2023-04-25T07:39:36;5.75;;;3.35;;
26271;SDS011;13997;48.902;12.472;2023-04-25T07:42:02;6.53;;;3.25;;
26271;SDS011;13997;48.902;12.472;2023-04-25T07:44:28;8.65;;;3.15;;
26271;SDS011;13997;48.902;12.472;2023-04-25T07:46:55;11.93;;;3.30;;
26271;SDS011;13997;48.902;12.472;2023-04-25T07:49:21;8.45;;;4.03;;
26271;SDS011;13997;48.902;12.472;2023-04-25T07:51:46;7.30;;;3.88;;
26271;SDS011;13997;48.902;12.472;2023-04-25T07:54:13;7.18;;;3.63;;
26271;SDS011;13997;48.902;12.472;2023-04-25T07:56:40;6.97;;;3.80;;
26271;SDS011;13997;48.902;12.472;2023-04-25T07:59:06;9.23;;;4.72;;
26271;SDS011;13997;48.902;12.472;2023-04-25T08:01:31;6.78;;;3.28;;
26271;SDS011;13997;48.902;12.472;2023-04-25T08:03:58;8.25;;;3.10;;
26271;SDS011;13997;48.902;12.472;2023-04-25T08:06:24;5.72;;;3.17;;
26271;SDS011;13997;48.902;12.472;2023-04-25T08:08:50;5.15;;;3.00;;
26271;SDS011;13997;48.902;12.472;2023-04-25T08:11:16;7.95;;;3.35;;
26271;SDS011;13997;48.902;12.472;2023-04-25T08:13:41;6.40;;;3.88;;
26271;SDS011;13997;48.902;12.472;2023-04-25T08:16:07;5.45;;;2.88;;
26271;SDS011;13997;48.902;12.472;2023-04-25T08:18:32;7.75;;;3.10;;
26271;SDS011;13997;48.902;12.472;2023-04-25T08:20:58;7.50;;;3.05;;
26271;SDS011;13997;48.902;12.472;2023-04-25T08:23:24;9.68;;;3.72;;
26271;SDS011;13997;48.902;12.472;2023-04-25T08:25:50;9.18;;;4.15;;
26271;SDS011;13997;48.902;12.472;2023-04-25T08:28:16;8.95;;;4.75;;
26271;SDS011;13997;48.902;12.472;2023-04-25T08:30:41;9.68;;;4.53;;
26271;SDS011;13997;48.902;12.472;2023-04-25T08:33:07;7.03;;;3.63;;
26271;SDS011;13997;48.902;12.472;2023-04-25T08:35:33;12.82;;;4.10;;
26271;SDS011;13997;48.902;12.472;2023-04-25T08:37:58;12.40;;;4.15;;
26271;SDS011;13997;48.902;12.472;2023-04-25T08:40:24;7.07;;;3.70;;
26271;SDS011;13997;48.902;12.472;2023-04-25T08:42:55;11.48;;;4.47;;
26271;SDS011;13997;48.902;12.472;2023-04-25T08:45:26;10.27;;;4.30;;
26271;SDS011;13997;48.902;12.472;2023-04-25T08:47:53;10.10;;;3.97;;
26271;SDS011;13997;48.902;12.472;2023-04-25T08:50:22;7.90;;;4.22;;
26271;SDS011;13997;48.902;12.472;2023-04-25T08:52:48;5.63;;;3.72;;
26271;SDS011;13997;48.902;12.472;2023-04-25T08:55:17;4.72;;;3.40;;
26271;SDS011;13997;48.902;12.472;2023-04-25T08:57:43;5.25;;;3.15;;
26271;SDS011;13997;48.902;12.472;2023-04-25T09:00:10;4.38;;;3.15;;
26271;SDS011;13997;48.902;12.472;2023-04-25T09:02:37;4.78;;;3.35;;
26271;SDS011;13997;48.902;12.472;2023-04-25T09:05:04;6.07;;;3.83;;
26271;SDS011;13997;48.902;12.472;2023-04-25T09:07:31;6.55;;;3.33;;
26271;SDS011;13997;48.902;12.472;2023-04-25T09:09:58;4.43;;;3.22;;
26271;SDS011;13997;48.902;12.472;2023-04-25T09:12:28;6.10;;;4.22;;
26271;SDS011;13997;48.902;12.472;2023-04-25T09:17:27;6.00;;;3.50;;
26271;SDS011;13997;48.902;12.472;2023-04-25T09:19:53;7.18;;;3.65;;
26271;SDS011;13997;48.902;12.472;2023-04-25T09:22:19;5.32;;;3.33;;
26271;SDS011;13997;48.902;12.472;2023-04-25T09:24:47;7.72;;;3.35;;
26271;SDS011;13997;48.902;12.472;2023-04-25T09:27:19;7.45;;;3.38;;
26271;SDS011;13997;48.902;12.472;2023-04-25T09:29:47;6.15;;;3.33;;
26271;SDS011;13997;48.902;12.472;2023-04-25T09:32:21;4.95;;;3.28;;
26271;SDS011;13997;48.902;12.472;2023-04-25T09:37:24;5.70;;;2.50;;
26271;SDS011;13997;48.902;12.472;2023-04-25T09:39:55;5.85;;;2.85;;
26271;SDS011;13997;48.902;12.472;2023-04-25T09:42:24;6.53;;;2.55;;
26271;SDS011;13997;48.902;12.472;2023-04-25T09:44:52;7.05;;;2.90;;
26271;SDS011;13997;48.902;12.472;2023-04-25T09:47:19;5.47;;;2.50;;
26271;SDS011;13997;48.902;12.472;2023-04-25T09:49:47;4.55;;;2.30;;
26271;SDS011;13997;48.902;12.472;2023-04-25T09:52:17;11.98;;;3.03;;
26271;SDS011;13997;48.902;12.472;2023-04-25T09:54:45;4.57;;;2.72;;
26271;SDS011;13997;48.902;12.472;2023-04-25T09:57:13;4.50;;;2.90;;
26271;SDS011;13997;48.902;12.472;2023-04-25T09:59:44;3.55;;;1.63;;
26271;SDS011;13997;48.902;12.472;2023-04-25T10:02:11;3.05;;;1.90;;
26271;SDS011;13997;48.902;12.472;2023-04-25T10:04:37;5.82;;;2.45;;
26271;SDS011;13997;48.902;12.472;2023-04-25T10:07:07;4.95;;;2.25;;
26271;SDS011;13997;48.902;12.472;2023-04-25T10:09:35;2.88;;;2.15;;
26271;SDS011;13997;48.902;12.472;2023-04-25T10:12:02;3.05;;;2.20;;
26271;SDS011;13997;48.902;12.472;2023-04-25T10:14:31;4.65;;;1.77;;
26271;SDS011;13997;48.902;12.472;2023-04-25T10:16:58;4.22;;;1.85;;
26271;SDS011;13997;48.902;12.472;2023-04-25T10:19:25;5.43;;;2.92;;
26271;SDS011;13997;48.902;12.472;2023-04-25T10:21:55;4.05;;;2.58;;
26271;SDS011;13997;48.902;12.472;2023-04-25T10:24:23;6.15;;;3.10;;
26271;SDS011;13997;48.902;12.472;2023-04-25T10:26:50;4.97;;;3.22;;
26271;SDS011;13997;48.902;12.472;2023-04-25T10:29:23;6.28;;;3.28;;
26271;SDS011;13997;48.902;12.472;2023-04-25T10:31:50;4.65;;;3.58;;
26271;SDS011;13997;48.902;12.472;2023-04-25T10:34:16;6.90;;;3.97;;
26271;SDS011;13997;48.902;12.472;2023-04-25T10:36:42;4.32;;;2.90;;
26271;SDS011;13997;48.902;12.472;2023-04-25T10:39:14;3.50;;;2.53;;
26271;SDS011;13997;48.902;12.472;2023-04-25T10:41:48;4.57;;;3.00;;
26271;SDS011;13997;48.902;12.472;2023-04-25T10:44:18;4.30;;;2.30;;
26271;SDS011;13997;48.902;12.472;2023-04-25T10:46:44;3.65;;;2.20;;
26271;SDS011;13997;48.902;12.472;2023-04-25T10:49:10;2.70;;;2.10;;
26271;SDS011;13997;48.902;12.472;2023-04-25T10:52:13;2.65;;;1.98;;
26271;SDS011;13997;48.902;12.472;2023-04-25T10:57:25;3.15;;;2.10;;
26271;SDS011;13997;48.902;12.472;2023-04-25T10:59:53;2.47;;;1.90;;
26271;SDS011;13997;48.902;12.472;2023-04-25T11:02:19;3.35;;;2.60;;
26271;SDS011;13997;48.902;12.472;2023-04-25T11:04:45;5.18;;;2.40;;
26271;SDS011;13997;48.902;12.472;2023-04-25T11:07:13;3.70;;;2.45;;
26271;SDS011;13997;48.902;12.472;2023-04-25T11:10:03;2.35;;;2.05;;
26271;SDS011;13997;48.902;12.472;2023-04-25T11:12:30;4.50;;;2.17;;
26271;SDS011;13997;48.902;12.472;2023-04-25T11:15:03;3.55;;;2.20;;
26271;SDS011;13997;48.902;12.472;2023-04-25T11:17:30;2.78;;;2.10;;
26271;SDS011;13997;48.902;12.472;2023-04-25T11:19:57;2.40;;;1.83;;
26271;SDS011;13997;48.902;12.472;2023-04-25T11:22:22;2.25;;;1.80;;
26271;SDS011;13997;48.902;12.472;2023-04-25T11:24:48;2.65;;;1.92;;
26271;SDS011;13997;48.902;12.472;2023-04-25T11:27:15;3.60;;;1.63;;
26271;SDS011;13997;48.902;12.472;2023-04-25T11:29:41;3.45;;;1.80;;
26271;SDS011;13997;48.902;12.472;2023-04-25T11:32:06;6.65;;;2.85;;
26271;SDS011;13997;48.902;12.472;2023-04-25T11:34:33;11.10;;;5.07;;
26271;SDS011;13997;48.902;12.472;2023-04-25T11:36:59;18.58;;;6.13;;
26271;SDS011;13997;48.902;12.472;2023-04-25T11:39:26;5.00;;;2.63;;
26271;SDS011;13997;48.902;12.472;2023-04-25T11:41:53;4.22;;;2.47;;
26271;SDS011;13997;48.902;12.472;2023-04-25T11:44:19;16.75;;;6.25;;
26271;SDS011;13997;48.902;12.472;2023-04-25T11:46:46;3.47;;;2.70;;
26271;SDS011;13997;48.902;12.472;2023-04-25T11:49:12;4.57;;;3.05;;
26271;SDS011;13997;48.902;12.472;2023-04-25T11:51:39;4.15;;;2.70;;
26271;SDS011;13997;48.902;12.472;2023-04-25T11:54:05;4.55;;;2.92;;
26271;SDS011;13997;48.902;12.472;2023-04-25T11:56:31;2.92;;;2.22;;
26271;SDS011;13997;48.902;12.472;2023-04-25T11:58:58;6.40;;;2.90;;
26271;SDS011;13997;48.902;12.472;2023-04-25T12:01:29;4.18;;;2.58;;
26271;SDS011;13997;48.902;12.472;2023-04-25T12:03:56;4.27;;;2.30;;
26271;SDS011;13997;48.902;12.472;2023-04-25T12:06:28;3.08;;;2.47;;
26271;SDS011;13997;48.902;12.472;2023-04-25T12:09:03;7.35;;;2.95;;
26271;SDS011;13997;48.902;12.472;2023-04-25T12:11:32;2.83;;;2.08;;
26271;SDS011;13997;48.902;12.472;2023-04-25T12:14:05;2.20;;;1.73;;
26271;SDS011;13997;48.902;12.472;2023-04-25T12:16:44;4.75;;;2.72;;
26271;SDS011;13997;48.902;12.472;2023-04-25T12:19:13;3.00;;;1.85;;
26271;SDS011;13997;48.902;12.472;2023-04-25T12:21:41;3.78;;;1.70;;
26271;SDS011;13997;48.902;12.472;2023-04-25T12:24:22;5.28;;;1.50;;
26271;SDS011;13997;48.902;12.472;2023-04-25T12:27:03;2.92;;;1.60;;
26271;SDS011;13997;48.902;12.472;2023-04-25T12:29:35;3.22;;;1.38;;
26271;SDS011;13997;48.902;12.472;2023-04-25T12:32:01;2.00;;;1.30;;
26271;SDS011;13997;48.902;12.472;2023-04-25T12:34:27;2.80;;;1.50;;
26271;SDS011;13997;48.902;12.472;2023-04-25T12:36:53;2.60;;;1.60;;
26271;SDS011;13997;48.902;12.472;2023-04-25T12:39:20;1.92;;;1.38;;
26271;SDS011;13997;48.902;12.472;2023-04-25T12:41:50;2.20;;;1.23;;
26271;SDS011;13997;48.902;12.472;2023-04-25T12:44:18;1.90;;;1.30;;
26271;SDS011;13997;48.902;12.472;2023-04-25T12:46:44;3.10;;;1.63;;
26271;SDS011;13997;48.902;12.472;2023-04-25T12:49:10;2.70;;;1.50;;
26271;SDS011;13997;48.902;12.472;2023-04-25T12:51:36;3.28;;;1.48;;
26271;SDS011;13997;48.902;12.472;2023-04-25T12:54:03;2.63;;;1.33;;
26271;SDS011;13997;48.902;12.472;2023-04-25T12:56:30;2.75;;;1.45;;
26271;SDS011;13997;48.902;12.472;2023-04-25T12:58:56;4.20;;;1.55;;
26271;SDS011;13997;48.902;12.472;2023-04-25T13:01:22;2.92;;;1.40;;
26271;SDS011;13997;48.902;12.472;2023-04-25T13:03:48;3.08;;;1.70;;
26271;SDS011;13997;48.902;12.472;2023-04-25T13:06:15;3.97;;;1.30;;
26271;SDS011;13997;48.902;12.472;2023-04-25T13:08:41;3.63;;;1.55;;
26271;SDS011;13997;48.902;12.472;2023-04-25T13:11:07;4.07;;;1.33;;
26271;SDS011;13997;48.902;12.472;2023-04-25T13:13:33;3.17;;;1.70;;
26271;SDS011;13997;48.902;12.472;2023-04-25T13:16:03;2.67;;;1.50;;
26271;SDS011;13997;48.902;12.472;2023-04-25T13:18:30;8.60;;;2.10;;
26271;SDS011;13997;48.902;12.472;2023-04-25T13:20:56;3.53;;;1.95;;
26271;SDS011;13997;48.902;12.472;2023-04-25T13:23:22;4.15;;;2.10;;
26271;SDS011;13997;48.902;12.472;2023-04-25T13:25:49;7.28;;;1.90;;
26271;SDS011;13997;48.902;12.472;2023-04-25T13:28:15;5.70;;;2.00;;
26271;SDS011;13997;48.902;12.472;2023-04-25T13:30:41;2.83;;;1.65;;
26271;SDS011;13997;48.902;12.472;2023-04-25T13:33:07;4.70;;;2.00;;
26271;SDS011;13997;48.902;12.472;2023-04-25T13:35:33;3.15;;;1.60;;
26271;SDS011;13997;48.902;12.472;2023-04-25T13:37:59;3.72;;;1.80;;
26271;SDS011;13997;48.902;12.472;2023-04-25T13:40:25;3.47;;;1.73;;
26271;SDS011;13997;48.902;12.472;2023-04-25T13:42:51;3.95;;;1.85;;
26271;SDS011;13997;48.902;12.472;2023-04-25T13:45:17;5.30;;;1.88;;
26271;SDS011;13997;48.902;12.472;2023-04-25T13:47:43;2.65;;;1.48;;
26271;SDS011;13997;48.902;12.472;2023-04-25T13:50:09;4.60;;;1.60;;
26271;SDS011;13997;48.902;12.472;2023-04-25T13:52:35;5.30;;;1.65;;
26271;SDS011;13997;48.902;12.472;2023-04-25T13:55:01;2.47;;;1.45;;
26271;SDS011;13997;48.902;12.472;2023-04-25T13:57:28;4.55;;;1.65;;
26271;SDS011;13997;48.902;12.472;2023-04-25T13:59:57;3.08;;;1.42;;
26271;SDS011;13997;48.902;12.472;2023-04-25T14:02:22;3.30;;;1.55;;
26271;SDS011;13997;48.902;12.472;2023-04-25T14:04:48;2.20;;;1.38;;
26271;SDS011;13997;48.902;12.472;2023-04-25T14:07:14;3.92;;;1.48;;
26271;SDS011;13997;48.902;12.472;2023-04-25T14:09:42;3.60;;;1.50;;
26271;SDS011;13997;48.902;12.472;2023-04-25T14:12:08;3.28;;;1.52;;
26271;SDS011;13997;48.902;12.472;2023-04-25T14:14:34;5.47;;;1.80;;
26271;SDS011;13997;48.902;12.472;2023-04-25T14:17:00;2.13;;;1.42;;
26271;SDS011;13997;48.902;12.472;2023-04-25T14:19:26;4.20;;;1.60;;
26271;SDS011;13997;48.902;12.472;2023-04-25T14:21:51;8.05;;;1.70;;
26271;SDS011;13997;48.902;12.472;2023-04-25T14:24:17;3.10;;;1.50;;
26271;SDS011;13997;48.902;12.472;2023-04-25T14:26:43;3.40;;;1.48;;
26271;SDS011;13997;48.902;12.472;2023-04-25T14:29:08;3.08;;;1.55;;
26271;SDS011;13997;48.902;12.472;2023-04-25T14:31:36;3.13;;;1.52;;
26271;SDS011;13997;48.902;12.472;2023-04-25T14:34:02;3.67;;;1.80;;
26271;SDS011;13997;48.902;12.472;2023-04-25T14:36:28;2.60;;;1.50;;
26271;SDS011;13997;48.902;12.472;2023-04-25T14:38:54;6.60;;;1.90;;